Ampton, United Kingdom
Current Conditions -  °F | °C
As of 9:52 PM on Saturday 22 Nov 2014 (Local Time) from EGUL Reporting Station
Overcast Overcast  
Wind Chill: 13°   Ceiling: 2400
Heat Index: 13°   Visibility: 6mi
Dew Point: 13°   Wind: 7mph
Humidity: 100%   Direction: 170°S
Pressure: 29.95"   Gusts: NA
Location:  52.33°N, 0.85°E
Report Text: EGUL 222152Z AUTO 17006KT 9999 SCT015 OVC024 13/13 A2995 RMK AO2 CIG 015V024 CIG 017 RWY24
Loading
Personal Weather Stations






























Interactive Weather Map New forecast layout! Learn more

10-Day Weather Forecast

Advertisements
Track Severe Weather on mobile